Terminal Aerodrome Forecast
Issued by NWS

Home | Current Version | Previous Version | Text Only | Print | Product List | Glossary On
Versions: 1 2 3 4 5 6 7 8 9 10 11 12 13 14 15 16 17 18 19 20 21
000
FTUS43 KILX 260529
TAFCMI
TAF
KCMI 260529Z 2606/2706 04014G18KT P6SM OVC025
     FM260700 03014KT P6SM SCT015 BKN040
     FM261200 03012KT P6SM SKC
     FM261500 03012G18KT P6SM SCT040
     FM270100 03010KT P6SM SKC=

USA.gov is the U.S. government's official web portal to all federal, state and local government web resources and services.